createdAt,value
2022-08-07T00:00:28.046Z,0.37
2022-08-07T00:02:56.960Z,0.20
2022-08-07T00:05:26.160Z,0.20
2022-08-07T00:07:59.698Z,0.30
2022-08-07T00:10:30.599Z,0.40
2022-08-07T00:13:02.052Z,0.30
2022-08-07T00:15:38.455Z,0.30
2022-08-07T00:18:19.308Z,0.27
2022-08-07T00:20:49.402Z,0.40
2022-08-07T00:23:18.014Z,0.37
2022-08-07T00:25:52.085Z,0.30
2022-08-07T00:28:31.783Z,0.40
2022-08-07T00:31:06.289Z,0.20
2022-08-07T00:33:41.238Z,0.40
2022-08-07T00:36:10.460Z,0.20
2022-08-07T00:38:39.830Z,0.30
2022-08-07T00:41:10.077Z,0.30
2022-08-07T00:44:00.278Z,0.20
2022-08-07T00:46:33.241Z,0.30
2022-08-07T00:49:02.978Z,0.30
2022-08-07T00:51:57.112Z,0.30
2022-08-07T00:54:20.117Z,0.40
2022-08-07T00:56:49.895Z,0.30
2022-08-07T00:59:20.324Z,0.40
2022-08-07T01:02:08.931Z,0.30
2022-08-07T01:04:43.430Z,0.30
2022-08-07T01:07:12.612Z,0.20
2022-08-07T01:10:07.034Z,0.37
2022-08-07T01:12:30.978Z,0.30
2022-08-07T01:15:01.670Z,0.30
2022-08-07T01:17:34.699Z,0.37
2022-08-07T01:20:07.847Z,0.30
2022-08-07T01:22:46.797Z,0.20
2022-08-07T01:25:53.690Z,0.20
2022-08-07T01:28:15.581Z,0.20
2022-08-07T01:30:44.103Z,0.40
2022-08-07T01:33:13.367Z,0.27
2022-08-07T01:35:53.319Z,0.30
2022-08-07T01:38:25.780Z,0.30
2022-08-07T01:41:00.077Z,0.47
2022-08-07T01:43:34.741Z,0.30
2022-08-07T01:46:08.303Z,0.30
2022-08-07T01:48:42.207Z,0.20
2022-08-07T01:52:00.916Z,0.30
2022-08-07T01:54:22.053Z,0.30
2022-08-07T01:57:06.816Z,0.20
2022-08-07T01:59:43.780Z,0.20
2022-08-07T02:03:05.631Z,0.40
2022-08-07T02:05:16.015Z,0.20
2022-08-07T02:08:02.328Z,0.20
2022-08-07T02:10:33.424Z,0.20
2022-08-07T02:13:02.304Z,0.40
2022-08-07T02:15:31.372Z,0.30
2022-08-07T02:18:03.806Z,0.30
2022-08-07T02:20:34.195Z,0.30
2022-08-07T02:23:05.859Z,0.30
2022-08-07T02:26:26.593Z,0.30
2022-08-07T02:28:29.630Z,0.30
2022-08-07T02:30:58.599Z,0.20
2022-08-07T02:33:41.964Z,0.30
2022-08-07T02:36:29.844Z,0.20
2022-08-07T02:39:02.128Z,0.40
2022-08-07T02:41:54.460Z,0.30
2022-08-07T02:44:27.624Z,0.30
2022-08-07T02:47:05.495Z,0.23
2022-08-07T02:49:58.285Z,0.30
2022-08-07T02:52:32.243Z,0.37
2022-08-07T02:55:05.750Z,0.30
2022-08-07T02:57:58.970Z,0.23
2022-08-07T03:00:30.299Z,0.30
2022-08-07T03:02:59.507Z,0.30
2022-08-07T03:05:35.729Z,0.40
2022-08-07T03:08:10.364Z,0.30
2022-08-07T03:10:41.054Z,0.30
2022-08-07T03:13:19.740Z,0.27
2022-08-07T03:15:55.785Z,0.40
2022-08-07T03:18:34.764Z,0.30
2022-08-07T03:21:08.603Z,0.30
2022-08-07T03:24:18.219Z,0.20
2022-08-07T03:26:31.763Z,0.30
2022-08-07T03:29:03.949Z,0.30
2022-08-07T03:31:43.333Z,0.30
2022-08-07T03:34:18.854Z,0.40
2022-08-07T03:36:52.857Z,0.30
2022-08-07T03:39:46.226Z,0.40
2022-08-07T03:42:11.123Z,0.30
2022-08-07T03:44:42.191Z,0.30
2022-08-07T03:47:14.706Z,0.20
2022-08-07T03:49:47.710Z,0.30
2022-08-07T03:52:26.124Z,0.40
2022-08-07T03:54:57.317Z,0.40
2022-08-07T03:58:34.297Z,0.20
2022-08-07T04:00:30.315Z,0.30
2022-08-07T04:02:59.835Z,0.27
2022-08-07T04:05:40.845Z,0.30
2022-08-07T04:08:12.962Z,0.30
2022-08-07T04:10:54.616Z,0.20
2022-08-07T04:14:10.627Z,0.20
2022-08-07T04:16:31.196Z,0.40
2022-08-07T04:19:03.912Z,0.30
2022-08-07T04:21:33.552Z,0.30
2022-08-07T04:24:07.558Z,0.40
2022-08-07T04:26:36.046Z,0.30
2022-08-07T04:29:04.169Z,0.20
2022-08-07T04:31:38.983Z,0.27
2022-08-07T04:34:27.387Z,0.33
2022-08-07T04:37:01.826Z,0.30
2022-08-07T04:39:35.917Z,0.20
2022-08-07T04:42:05.669Z,0.40
2022-08-07T04:44:34.164Z,0.30
2022-08-07T04:47:09.107Z,0.30
2022-08-07T04:49:57.561Z,0.30
2022-08-07T04:52:35.291Z,0.20
2022-08-07T04:55:15.024Z,0.30
2022-08-07T04:58:27.163Z,0.30
2022-08-07T05:00:59.023Z,0.30
2022-08-07T05:04:06.760Z,0.30
2022-08-07T05:06:28.341Z,0.40
2022-08-07T05:09:43.127Z,0.30
2022-08-07T05:12:13.315Z,0.23
2022-08-07T05:14:54.931Z,0.30
2022-08-07T05:17:51.990Z,0.30
2022-08-07T05:20:25.030Z,0.40
2022-08-07T05:22:59.072Z,0.20
2022-08-07T05:25:54.577Z,0.20
2022-08-07T05:28:22.635Z,0.40
2022-08-07T05:30:53.165Z,0.40
2022-08-07T05:33:22.238Z,0.33
2022-08-07T05:35:55.077Z,0.30
2022-08-07T05:38:58.332Z,0.30
2022-08-07T05:41:15.927Z,0.40
2022-08-07T05:44:07.529Z,0.30
2022-08-07T05:46:37.095Z,0.20
2022-08-07T05:49:11.617Z,0.30
2022-08-07T05:51:43.103Z,0.20
2022-08-07T05:54:31.129Z,0.27
2022-08-07T05:57:03.834Z,0.20
2022-08-07T05:59:46.556Z,0.20
2022-08-07T06:02:28.765Z,0.20
2022-08-07T06:05:03.354Z,0.20
2022-08-07T06:08:29.475Z,0.20
2022-08-07T06:10:22.882Z,0.10
2022-08-07T06:12:50.979Z,0.20
2022-08-07T06:15:20.403Z,0.20
2022-08-07T06:17:53.829Z,0.20
2022-08-07T06:20:32.152Z,0.30
2022-08-07T06:23:24.882Z,0.20
2022-08-07T06:26:02.177Z,0.20
2022-08-07T06:28:30.051Z,0.20
2022-08-07T06:30:58.566Z,0.30
2022-08-07T06:33:27.126Z,0.30
2022-08-07T06:36:11.843Z,0.20
2022-08-07T06:38:51.656Z,0.30
2022-08-07T06:42:00.941Z,0.30
2022-08-07T06:44:31.028Z,0.20
2022-08-07T06:47:10.315Z,0.20
2022-08-07T06:49:52.003Z,0.20
2022-08-07T06:52:31.429Z,0.30
2022-08-07T06:55:34.051Z,0.30
2022-08-07T06:57:59.476Z,0.20
2022-08-07T07:00:29.103Z,0.30
2022-08-07T07:03:01.101Z,0.30
2022-08-07T07:06:05.016Z,0.30
2022-08-07T07:08:27.685Z,0.20
2022-08-07T07:10:58.990Z,0.20
2022-08-07T07:13:56.205Z,0.23
2022-08-07T07:16:27.614Z,0.23
2022-08-07T07:19:54.791Z,0.20
2022-08-07T07:22:05.173Z,0.20
2022-08-07T07:24:42.930Z,0.10
2022-08-07T07:27:16.364Z,0.10
2022-08-07T07:30:08.816Z,0.20
2022-08-07T07:32:40.479Z,0.20
2022-08-07T07:35:11.935Z,0.20
2022-08-07T07:37:47.256Z,0.10
2022-08-07T07:40:25.223Z,0.10
2022-08-07T07:42:58.702Z,0.20
2022-08-07T07:46:37.964Z,0.20
2022-08-07T07:48:35.690Z,0.20
2022-08-07T07:51:07.902Z,0.10
2022-08-07T07:53:51.229Z,0.10
2022-08-07T07:56:30.323Z,0.20
2022-08-07T07:59:02.216Z,0.20
2022-08-07T08:02:01.999Z,0.10
2022-08-07T08:04:25.487Z,0.10
2022-08-07T08:06:55.672Z,0.10
2022-08-07T08:09:29.631Z,0.10
2022-08-07T08:12:04.035Z,0.13
2022-08-07T08:14:36.735Z,0.10
2022-08-07T08:17:55.654Z,0.10
2022-08-07T08:20:22.165Z,0.10
2022-08-07T08:23:08.365Z,0.10
2022-08-07T08:25:58.029Z,0.10
2022-08-07T08:28:37.800Z,0.10
2022-08-07T08:31:14.768Z,0.10
2022-08-07T08:33:55.759Z,0.10
2022-08-07T08:36:29.789Z,0.10
2022-08-07T08:39:01.880Z,0.10
2022-08-07T08:41:57.147Z,0.13
2022-08-07T08:44:31.541Z,0.10
2022-08-07T08:47:10.022Z,0.10
2022-08-07T08:50:02.537Z,0.10
2022-08-07T08:52:51.579Z,0.10
2022-08-07T08:55:54.831Z,0.10
2022-08-07T08:58:28.604Z,0.10
2022-08-07T09:01:14.746Z,0.10
2022-08-07T09:03:57.186Z,0.10
2022-08-07T09:06:42.669Z,0.10
2022-08-07T09:09:33.100Z,0.10
2022-08-07T09:12:30.509Z,0.10
2022-08-07T09:16:23.408Z,0.10
2022-08-07T09:18:23.645Z,0.10
2022-08-07T09:21:04.992Z,0.10
2022-08-07T09:24:32.117Z,0.10
2022-08-07T09:26:47.707Z,0.10
2022-08-07T09:30:05.299Z,0.10
2022-08-07T09:32:26.445Z,0.10
2022-08-07T09:36:04.797Z,0.10
2022-08-07T09:38:01.271Z,0.10
2022-08-07T09:40:36.425Z,0.10
2022-08-07T09:43:19.734Z,0.10
2022-08-07T09:47:51.997Z,0.10
2022-08-07T09:50:01.083Z,0.10
2022-08-07T09:52:34.643Z,0.10
2022-08-07T09:55:17.256Z,0.10
2022-08-07T09:58:48.517Z,0.10
2022-08-07T10:01:52.324Z,0.10
2022-08-07T10:04:52.917Z,0.10
2022-08-07T10:07:55.380Z,0.10
2022-08-07T10:12:00.055Z,0.10
2022-08-07T10:14:00.303Z,0.10
2022-08-07T10:17:01.888Z,0.10
2022-08-07T10:19:45.480Z,0.10
2022-08-07T10:22:37.355Z,0.10
2022-08-07T10:25:20.805Z,0.10
2022-08-07T10:28:06.087Z,0.10
2022-08-07T10:30:51.175Z,0.05
2022-08-07T10:34:05.914Z,0.10
2022-08-07T10:36:42.158Z,0.05
2022-08-07T10:39:26.098Z,0.10
2022-08-07T10:42:30.971Z,0.10
2022-08-07T10:45:16.645Z,0.10
2022-08-07T10:47:51.432Z,0.10
2022-08-07T10:50:25.940Z,0.10
2022-08-07T10:53:05.421Z,0.10
2022-08-07T10:55:45.071Z,0.10
2022-08-07T10:58:31.909Z,0.10
2022-08-07T11:01:35.728Z,0.10
2022-08-07T11:04:34.818Z,0.10
2022-08-07T11:07:56.356Z,0.10
2022-08-07T11:10:19.928Z,0.10
2022-08-07T11:13:01.791Z,0.10
2022-08-07T11:15:34.842Z,0.10
2022-08-07T11:18:12.501Z,0.03
2022-08-07T11:20:49.503Z,0.10
2022-08-07T11:23:30.803Z,0.10
2022-08-07T11:26:14.951Z,0.10
2022-08-07T11:28:51.358Z,0.10
2022-08-07T11:31:30.407Z,0.10
2022-08-07T11:34:10.154Z,0.10
2022-08-07T11:36:49.605Z,0.10
2022-08-07T11:39:39.644Z,0.10
2022-08-07T11:42:29.677Z,0.10
2022-08-07T11:45:12.342Z,0.10
2022-08-07T11:47:59.519Z,0.10
2022-08-07T11:50:57.892Z,0.10
2022-08-07T11:53:37.913Z,0.10
2022-08-07T11:56:36.374Z,0.10
2022-08-07T12:00:12.372Z,0.10
2022-08-07T12:02:30.622Z,0.10
2022-08-07T12:05:15.431Z,0.10
2022-08-07T12:08:03.977Z,0.10
2022-08-07T12:10:41.644Z,0.10
2022-08-07T12:13:18.774Z,0.10
2022-08-07T12:16:09.074Z,0.10
2022-08-07T12:18:45.490Z,0.10
2022-08-07T12:22:36.088Z,0.10
2022-08-07T12:24:38.522Z,0.10
2022-08-07T12:27:15.700Z,0.10
2022-08-07T12:29:55.014Z,0.10
2022-08-07T12:32:32.040Z,0.10
2022-08-07T12:35:03.348Z,0.05
2022-08-07T12:38:09.600Z,0.10
2022-08-07T12:40:47.505Z,0.10
2022-08-07T12:44:02.159Z,0.10
2022-08-07T12:46:25.919Z,0.10
2022-08-07T12:49:10.149Z,0.10
2022-08-07T12:52:12.017Z,0.10
2022-08-07T12:54:54.984Z,0.10
2022-08-07T12:57:29.984Z,0.10
2022-08-07T13:00:31.012Z,0.10
2022-08-07T13:03:53.539Z,0.00
2022-08-07T13:06:27.749Z,0.10
2022-08-07T13:09:12.617Z,0.10
2022-08-07T13:12:03.107Z,0.10
2022-08-07T13:14:51.095Z,0.10
2022-08-07T13:17:40.050Z,0.10
2022-08-07T13:20:17.338Z,0.00
2022-08-07T13:22:53.786Z,0.10
2022-08-07T13:25:29.820Z,0.10
2022-08-07T13:28:10.951Z,0.10
2022-08-07T13:30:53.175Z,0.10
2022-08-07T13:34:29.851Z,0.10
2022-08-07T13:36:39.752Z,0.10
2022-08-07T13:39:28.566Z,0.10
2022-08-07T13:42:10.161Z,0.10
2022-08-07T13:44:40.517Z,0.10
2022-08-07T13:47:15.035Z,0.10
2022-08-07T13:50:33.401Z,0.08
2022-08-07T13:52:40.724Z,0.22
2022-08-07T13:55:19.590Z,0.10
2022-08-07T13:58:20.636Z,0.10
2022-08-07T14:00:56.907Z,0.10
2022-08-07T14:03:30.020Z,0.10
2022-08-07T14:06:16.802Z,0.10
2022-08-07T14:08:48.750Z,0.10
2022-08-07T14:11:25.063Z,0.10
2022-08-07T14:13:57.040Z,0.10
2022-08-07T14:16:31.107Z,0.10
2022-08-07T14:19:02.770Z,0.10
2022-08-07T14:22:03.543Z,0.10
2022-08-07T14:24:33.234Z,0.10
2022-08-07T14:27:16.197Z,0.10
2022-08-07T14:30:04.830Z,0.10
2022-08-07T14:32:45.517Z,0.10
2022-08-07T14:35:43.397Z,0.10
2022-08-07T14:38:26.720Z,0.10
2022-08-07T14:41:04.131Z,0.10
2022-08-07T14:43:59.336Z,0.10
2022-08-07T14:46:30.685Z,0.10
2022-08-07T14:49:17.508Z,0.10
2022-08-07T14:52:03.946Z,0.10
2022-08-07T14:54:42.919Z,0.10
2022-08-07T14:57:24.890Z,0.10
2022-08-07T15:00:05.154Z,0.10
2022-08-07T15:02:37.157Z,0.10
2022-08-07T15:05:20.447Z,0.10
2022-08-07T15:07:52.278Z,0.10
2022-08-07T15:10:26.386Z,0.10
2022-08-07T15:12:58.444Z,0.10
2022-08-07T15:15:38.616Z,0.10
2022-08-07T15:18:14.427Z,0.10
2022-08-07T15:21:03.918Z,0.10
2022-08-07T15:25:15.979Z,0.10
2022-08-07T15:26:39.541Z,0.10
2022-08-07T15:32:04.936Z,0.10
2022-08-07T15:34:37.485Z,0.10
2022-08-07T15:37:27.980Z,0.10
2022-08-07T15:39:59.905Z,0.10
2022-08-07T15:42:52.449Z,0.10
2022-08-07T15:45:58.194Z,0.10
2022-08-07T15:48:32.162Z,0.10
2022-08-07T15:51:10.074Z,0.10
2022-08-07T15:53:53.227Z,0.10
2022-08-07T15:56:33.332Z,0.17
2022-08-07T15:59:05.728Z,0.10
2022-08-07T16:01:38.656Z,0.10
2022-08-07T16:04:14.929Z,0.10
2022-08-07T16:06:49.167Z,0.10
2022-08-07T16:09:24.016Z,0.10
2022-08-07T16:12:37.904Z,0.10
2022-08-07T16:15:55.271Z,0.17
2022-08-07T16:18:50.149Z,0.20
2022-08-07T16:21:44.076Z,0.20
2022-08-07T16:24:34.355Z,0.10
2022-08-07T16:27:17.865Z,0.10
2022-08-07T16:30:09.587Z,0.10
2022-08-07T16:32:59.471Z,0.10
2022-08-07T16:35:58.584Z,0.20
2022-08-07T16:39:00.628Z,0.10
2022-08-07T16:41:48.799Z,0.10
2022-08-07T16:45:07.304Z,0.10
2022-08-07T16:47:59.573Z,0.10
2022-08-07T16:51:07.386Z,0.17
2022-08-07T16:54:09.214Z,0.20
2022-08-07T16:56:53.233Z,0.20
2022-08-07T16:59:46.104Z,0.10
2022-08-07T17:02:52.431Z,0.10
2022-08-07T17:06:28.828Z,0.10
2022-08-07T17:09:08.651Z,0.10
2022-08-07T17:11:50.760Z,0.20
2022-08-07T17:14:33.322Z,0.10
2022-08-07T17:17:07.377Z,0.10
2022-08-07T17:20:00.774Z,0.17
2022-08-07T17:22:38.133Z,0.10
2022-08-07T17:25:15.121Z,0.10
2022-08-07T17:27:59.240Z,0.10
2022-08-07T17:30:36.294Z,0.20
2022-08-07T17:34:10.229Z,0.10
2022-08-07T17:36:21.323Z,0.20
2022-08-07T17:39:10.058Z,0.20
2022-08-07T17:42:04.761Z,0.20
2022-08-07T17:44:50.143Z,0.30
2022-08-07T17:47:41.920Z,0.10
2022-08-07T17:50:19.125Z,0.10
2022-08-07T17:52:53.234Z,0.20
2022-08-07T17:56:00.762Z,0.20
2022-08-07T17:58:30.530Z,0.20
2022-08-07T18:01:17.954Z,0.20
2022-08-07T18:04:07.005Z,0.20
2022-08-07T18:06:42.971Z,0.20
2022-08-07T18:09:18.628Z,0.20
2022-08-07T18:12:28.431Z,0.20
2022-08-07T18:15:08.404Z,0.20
2022-08-07T18:18:45.172Z,0.20
2022-08-07T18:21:08.442Z,0.20
2022-08-07T18:23:57.059Z,0.20
2022-08-07T18:26:45.836Z,0.20
2022-08-07T18:30:05.886Z,0.20
2022-08-07T18:32:25.638Z,0.20
2022-08-07T18:35:12.809Z,0.20
2022-08-07T18:38:57.384Z,0.23
2022-08-07T18:41:09.231Z,0.20
2022-08-07T18:43:57.624Z,0.20
2022-08-07T18:46:33.274Z,0.20
2022-08-07T18:50:33.098Z,0.30
2022-08-07T18:52:38.774Z,0.30
2022-08-07T18:54:58.391Z,0.20
2022-08-07T18:57:38.830Z,0.20
2022-08-07T19:00:33.546Z,0.20
2022-08-07T19:03:11.944Z,0.20
2022-08-07T19:06:03.844Z,0.20
2022-08-07T19:08:48.367Z,0.20
2022-08-07T19:11:36.268Z,0.20
2022-08-07T19:14:17.151Z,0.20
2022-08-07T19:17:07.881Z,0.20
2022-08-07T19:19:59.748Z,0.20
2022-08-07T19:22:36.697Z,0.20
2022-08-07T19:26:22.808Z,0.20
2022-08-07T19:28:58.696Z,0.20
2022-08-07T19:31:37.356Z,0.20
2022-08-07T19:33:47.001Z,0.20
2022-08-07T19:36:28.267Z,0.20
2022-08-07T19:39:01.192Z,0.20
2022-08-07T19:42:08.183Z,0.30
2022-08-07T19:44:37.611Z,0.23
2022-08-07T19:47:14.211Z,0.30
2022-08-07T19:49:57.913Z,0.20
2022-08-07T19:52:31.917Z,0.20
2022-08-07T19:55:02.837Z,0.27
2022-08-07T19:58:00.841Z,0.30
2022-08-07T20:00:30.499Z,0.23
2022-08-07T20:03:04.675Z,0.23
2022-08-07T20:05:59.681Z,0.30
2022-08-07T20:08:33.382Z,0.20
2022-08-07T20:11:09.882Z,0.20
2022-08-07T20:13:44.398Z,0.20
2022-08-07T20:16:35.520Z,0.20
2022-08-07T20:19:10.340Z,0.20
2022-08-07T20:21:41.812Z,0.20
2022-08-07T20:24:18.944Z,0.20
2022-08-07T20:26:50.099Z,0.20
2022-08-07T20:29:47.630Z,0.20
2022-08-07T20:32:22.867Z,0.10
2022-08-07T20:34:56.730Z,0.10
2022-08-07T20:37:29.696Z,0.20
2022-08-07T20:40:05.279Z,0.20
2022-08-07T20:42:56.605Z,0.20
2022-08-07T20:45:33.622Z,0.20
2022-08-07T20:48:28.750Z,0.20
2022-08-07T20:51:00.132Z,0.27
2022-08-07T20:54:03.245Z,0.20
2022-08-07T20:56:20.217Z,0.20
2022-08-07T20:58:58.633Z,0.20
2022-08-07T21:01:45.936Z,0.20
2022-08-07T21:04:22.755Z,0.30
2022-08-07T21:06:56.722Z,0.20
2022-08-07T21:09:31.037Z,0.20
2022-08-07T21:12:28.961Z,0.20
2022-08-07T21:14:58.316Z,0.20
2022-08-07T21:18:02.950Z,0.13
2022-08-07T21:20:27.085Z,0.20
2022-08-07T21:23:07.646Z,0.20
2022-08-07T21:25:56.884Z,0.20
2022-08-07T21:28:48.516Z,0.20
2022-08-07T21:31:49.468Z,0.20
2022-08-07T21:34:31.809Z,0.20
2022-08-07T21:37:04.660Z,0.10
2022-08-07T21:39:51.550Z,0.27
2022-08-07T21:42:49.213Z,0.20
2022-08-07T21:46:09.386Z,0.20
2022-08-07T21:48:28.301Z,0.20
2022-08-07T21:51:07.911Z,0.20
2022-08-07T21:53:52.646Z,0.10
2022-08-07T21:56:36.139Z,0.20
2022-08-07T21:59:09.088Z,0.20
2022-08-07T22:02:10.504Z,0.20
2022-08-07T22:04:37.957Z,0.30
2022-08-07T22:07:13.191Z,0.20
2022-08-07T22:09:53.560Z,0.20
2022-08-07T22:12:31.635Z,0.23
2022-08-07T22:16:42.806Z,0.20
2022-08-07T22:17:57.880Z,0.30
2022-08-07T22:20:35.331Z,0.17
2022-08-07T22:23:17.646Z,0.20
2022-08-07T22:26:02.372Z,0.23
2022-08-07T22:28:48.552Z,0.20
2022-08-07T22:31:45.174Z,0.20
2022-08-07T22:34:31.570Z,0.27
2022-08-07T22:37:12.500Z,0.30
2022-08-07T22:39:53.993Z,0.20
2022-08-07T22:42:29.586Z,0.20
2022-08-07T22:45:02.518Z,0.20
2022-08-07T22:47:52.080Z,0.20
2022-08-07T22:50:37.128Z,0.20
2022-08-07T22:54:07.331Z,0.30
2022-08-07T22:56:29.482Z,0.20
2022-08-07T22:59:27.008Z,0.33
2022-08-07T23:02:22.715Z,0.30
2022-08-07T23:06:09.940Z,0.30
2022-08-07T23:07:59.105Z,0.20
2022-08-07T23:10:58.788Z,0.30
2022-08-07T23:13:49.105Z,0.20
2022-08-07T23:16:55.387Z,0.20
2022-08-07T23:19:58.582Z,0.20
2022-08-07T23:22:40.240Z,0.20
2022-08-07T23:25:22.657Z,0.30
2022-08-07T23:28:21.192Z,0.30
2022-08-07T23:31:42.711Z,0.30
2022-08-07T23:34:33.461Z,0.30
2022-08-07T23:38:00.204Z,0.30
2022-08-07T23:40:34.112Z,0.20
2022-08-07T23:43:38.847Z,0.27
2022-08-07T23:46:28.886Z,0.20
2022-08-07T23:49:26.292Z,0.30
2022-08-07T23:53:00.046Z,0.27
2022-08-07T23:55:53.539Z,0.20
2022-08-07T23:58:18.769Z,0.20
